Temp: 5.8°C   Baro: 1032.5mb
  Wind: 2.9mph   Dir: ENE (58°)
  Rain: 0.0mm (0.0mm/hr)
  Solar: 0W/m2  Hum: 80%
 
Bath Spa Weather Historical Data
Daily Summary for December 10, 2019 Units:  Metric    English   Both
Next Day »
Daily Weekly Monthly Yearly Custom
  High: Low: Average:
Temperature: 13.3 °C 4.0 °C 8.7 °C
Dew Point: 11.7 °C 2.8 °C 7.1 °C
Humidity: 93% 83% 90%
Wind Speed: 45.1km/h 0.0km/h 11.2km/h
Wind Gust: 49.9km/h - -
Wind direction- - SW
Pressure: 1019.2 hPa 1000.2 hPa -
Precipitation: 0.0 mm    
Historical Graphs
 
 
Tabular Data for December 10, 2019
Time Temperature Dew Point Pressure Wind direction Wind Speed Wind Gust Humidity Rainfall Rate (Hourly) solar
00:00 5.9 °C 4.9 °C 1019.2 hPa ESE 1.4 km/h 8.0 km/h 93% 0.0 mm 0.00 W/m2
00:05 6.1 °C 5.1 °C 1019.2 hPa ESE 1.4 km/h 6.4 km/h 93% 0.0 mm 0.00 W/m2
00:11 6.1 °C 4.9 °C 1019.2 hPa ESE 3.2 km/h 4.8 km/h 92% 0.0 mm 0.00 W/m2
00:15 6.2 °C 5.0 °C 1018.8 hPa SE 12.9 km/h 12.9 km/h 92% 0.0 mm 0.00 W/m2
00:20 6.2 °C 5.0 °C 1018.5 hPa ESE 4.7 km/h 8.0 km/h 92% 0.0 mm 0.00 W/m2
00:25 6.3 °C 5.1 °C 1018.5 hPa ESE 3.2 km/h 6.4 km/h 92% 0.0 mm 0.00 W/m2
00:30 6.3 °C 5.1 °C 1018.5 hPa ESE 6.4 km/h 6.4 km/h 92% 0.0 mm 0.00 W/m2
00:35 6.3 °C 4.9 °C 1018.2 hPa ESE 1.4 km/h 4.8 km/h 91% 0.0 mm 0.00 W/m2
00:40 6.6 °C 5.2 °C 1018.2 hPa Calm   4.8 km/h 91% 0.0 mm 0.00 W/m2
00:45 6.7 °C 5.3 °C 1018.2 hPa ESE 9.7 km/h 9.7 km/h 91% 0.0 mm 0.00 W/m2
00:50 7.1 °C 5.6 °C 1017.8 hPa SSE 9.7 km/h 11.3 km/h 90% 0.0 mm 0.00 W/m2
00:56 7.7 °C 6.2 °C 1017.8 hPa South 4.7 km/h 12.9 km/h 90% 0.0 mm 0.00 W/m2
01:00 8.0 °C 6.3 °C 1017.8 hPa South 11.1 km/h 17.7 km/h 89% 0.0 mm 0.00 W/m2
01:05 8.3 °C 6.3 °C 1017.8 hPa South 25.7 km/h 25.7 km/h 87% 0.0 mm 0.00 W/m2
01:10 8.4 °C 6.2 °C 1017.8 hPa SSW 6.4 km/h 19.3 km/h 86% 0.0 mm 0.00 W/m2
01:15 8.6 °C 6.2 °C 1017.8 hPa South 14.3 km/h 14.5 km/h 85% 0.0 mm 0.00 W/m2
01:20 8.7 °C 6.3 °C 1017.8 hPa SSW 9.7 km/h 14.5 km/h 85% 0.0 mm 0.00 W/m2
01:25 8.8 °C 6.4 °C 1017.5 hPa WSW 13.0 km/h 16.1 km/h 85% 0.0 mm 0.00 W/m2
01:30 8.9 °C 6.3 °C 1017.5 hPa SSW 11.1 km/h 19.3 km/h 84% 0.0 mm 0.00 W/m2
01:35 9.2 °C 6.6 °C 1017.2 hPa SSW 17.7 km/h 17.7 km/h 84% 0.0 mm 0.00 W/m2
01:40 9.3 °C 6.6 °C 1017.2 hPa South 7.9 km/h 12.9 km/h 83% 0.0 mm 0.00 W/m2
01:45 9.3 °C 6.6 °C 1017.2 hPa SSW 6.4 km/h 19.3 km/h 83% 0.0 mm 0.00 W/m2
01:50 9.2 °C 6.5 °C 1017.2 hPa SSW 3.2 km/h 17.7 km/h 83% 0.0 mm 0.00 W/m2
01:55 9.2 °C 6.6 °C 1016.8 hPa SSW 11.1 km/h 16.1 km/h 84% 0.0 mm 0.00 W/m2
02:00 9.2 °C 6.6 °C 1016.8 hPa South 20.9 km/h 20.9 km/h 84% 0.0 mm 0.00 W/m2
02:05 9.2 °C 6.6 °C 1016.8 hPa SSW 7.9 km/h 16.1 km/h 84% 0.0 mm 0.00 W/m2
02:10 9.2 °C 6.8 °C 1016.5 hPa South 1.4 km/h 12.9 km/h 85% 0.0 mm 0.00 W/m2
02:15 9.3 °C 6.9 °C 1016.1 hPa South 9.7 km/h 19.3 km/h 85% 0.0 mm 0.00 W/m2
02:20 9.3 °C 7.1 °C 1016.1 hPa South 17.7 km/h 24.1 km/h 86% 0.3 mm 0.00 W/m2
02:25 9.4 °C 7.2 °C 1016.1 hPa South 7.9 km/h 24.1 km/h 86% 0.3 mm 0.00 W/m2
02:30 9.3 °C 7.2 °C 1015.8 hPa SSW 9.7 km/h 14.5 km/h 87% 0.5 mm 0.00 W/m2
02:35 9.4 °C 7.3 °C 1015.8 hPa South 7.9 km/h 20.9 km/h 87% 0.5 mm 0.00 W/m2
02:40 9.3 °C 7.4 °C 1015.5 hPa South 24.1 km/h 24.1 km/h 88% 0.5 mm 0.00 W/m2
02:45 9.3 °C 7.4 °C 1015.5 hPa SSW 4.7 km/h 16.1 km/h 88% 0.5 mm 0.00 W/m2
02:50 9.4 °C 7.5 °C 1015.5 hPa SSE 7.9 km/h 20.9 km/h 88% 0.5 mm 0.00 W/m2
02:55 9.4 °C 7.7 °C 1015.1 hPa South 6.4 km/h 29.0 km/h 89% 0.5 mm 0.00 W/m2
03:00 9.4 °C 7.7 °C 1015.1 hPa South 7.9 km/h 20.9 km/h 89% 0.8 mm 0.00 W/m2
03:05 9.5 °C 7.8 °C 1015.1 hPa SSW 3.2 km/h 17.7 km/h 89% 0.8 mm 0.00 W/m2
03:10 9.6 °C 7.9 °C 1015.1 hPa South 7.9 km/h 19.3 km/h 89% 1.0 mm 0.00 W/m2
03:15 9.6 °C 7.9 °C 1015.1 hPa South 16.3 km/h 17.7 km/h 89% 1.0 mm 0.00 W/m2
03:20 9.7 °C 8.0 °C 1014.8 hPa SSE 3.2 km/h 20.9 km/h 89% 0.8 mm 0.00 W/m2
03:25 9.7 °C 8.0 °C 1014.4 hPa SSW 13.0 km/h 24.1 km/h 89% 1.0 mm 5.00 W/m2
03:30 9.7 °C 8.0 °C 1014.4 hPa SSW 7.9 km/h 35.4 km/h 89% 0.8 mm 7.00 W/m2
03:35 9.8 °C 8.1 °C 1014.4 hPa South 4.7 km/h 25.7 km/h 89% 1.0 mm 7.00 W/m2
03:40 9.7 °C 8.0 °C 1014.1 hPa SSW 7.9 km/h 24.1 km/h 89% 1.0 mm 9.00 W/m2
03:45 9.7 °C 8.1 °C 1014.1 hPa South 13.0 km/h 25.7 km/h 90% 1.0 mm 9.00 W/m2
03:50 9.8 °C 8.2 °C 1013.8 hPa South 13.0 km/h 25.7 km/h 90% 1.3 mm 11.00 W/m2
03:55 9.8 °C 8.2 °C 1013.8 hPa South 7.9 km/h 33.8 km/h 90% 1.0 mm 12.00 W/m2
04:00 9.9 °C 8.3 °C 1013.8 hPa SSE 38.6 km/h 38.6 km/h 90% 1.3 mm 14.00 W/m2
04:05 9.9 °C 8.3 °C 1013.4 hPa South 20.9 km/h 27.4 km/h 90% 1.3 mm 19.00 W/m2
04:10 9.9 °C 8.3 °C 1013.4 hPa South 29.0 km/h 29.0 km/h 90% 1.3 mm 21.00 W/m2
04:15 9.9 °C 8.3 °C 1013.4 hPa SSW 28.8 km/h 30.6 km/h 90% 1.3 mm 23.00 W/m2
04:20 10.0 °C 8.4 °C 1013.4 hPa SSE 40.2 km/h 40.2 km/h 90% 1.3 mm 21.00 W/m2
04:26 10.1 °C 8.5 °C 1013.4 hPa SSE 16.3 km/h 35.4 km/h 90% 1.3 mm 21.00 W/m2
04:30 10.1 °C 8.5 °C 1013.4 hPa SSE 16.3 km/h 19.3 km/h 90% 1.3 mm 26.00 W/m2
04:35 10.1 °C 8.5 °C 1013.4 hPa South 24.1 km/h 30.6 km/h 90% 1.0 mm 14.00 W/m2
04:40 10.2 °C 8.6 °C 1013.4 hPa SSW 14.3 km/h 30.6 km/h 90% 1.0 mm 14.00 W/m2
04:45 10.2 °C 8.5 °C 1013.1 hPa South 11.1 km/h 33.8 km/h 89% 0.8 mm 11.00 W/m2
04:50 10.1 °C 8.5 °C 1012.8 hPa South 13.0 km/h 25.7 km/h 90% 0.8 mm 12.00 W/m2
04:55 10.2 °C 8.6 °C 1012.4 hPa SSW 13.0 km/h 35.4 km/h 90% 0.5 mm 12.00 W/m2
05:00 10.3 °C 8.6 °C 1012.4 hPa SSW 16.3 km/h 37.0 km/h 89% 0.5 mm 11.00 W/m2
05:05 10.3 °C 8.7 °C 1012.4 hPa SSW 11.1 km/h 19.3 km/h 90% 0.5 mm 16.00 W/m2
05:10 10.3 °C 8.7 °C 1012.4 hPa South 24.1 km/h 24.1 km/h 90% 0.5 mm 19.00 W/m2
05:15 10.2 °C 8.5 °C 1012.1 hPa SSW 13.0 km/h 32.2 km/h 89% 0.8 mm 23.00 W/m2
05:20 10.2 °C 8.6 °C 1012.1 hPa SSW 11.1 km/h 29.0 km/h 90% 0.5 mm 32.00 W/m2
05:25 10.2 °C 8.6 °C 1011.7 hPa SSW 13.0 km/h 40.2 km/h 90% 0.8 mm 35.00 W/m2
05:30 10.2 °C 8.8 °C 1012.1 hPa SSE 30.6 km/h 30.6 km/h 91% 0.8 mm 32.00 W/m2
05:35 10.3 °C 8.9 °C 1011.7 hPa SSW 11.1 km/h 35.4 km/h 91% 0.8 mm 35.00 W/m2
05:40 10.3 °C 8.9 °C 1011.7 hPa SW 14.3 km/h 30.6 km/h 91% 1.0 mm 32.00 W/m2
05:45 10.4 °C 8.8 °C 1011.7 hPa SSW 19.5 km/h 41.8 km/h 90% 1.0 mm 30.00 W/m2
05:50 10.4 °C 8.8 °C 1011.7 hPa SSE 16.3 km/h 22.5 km/h 90% 0.8 mm 30.00 W/m2
05:55 10.4 °C 8.8 °C 1011.7 hPa South 37.0 km/h 38.6 km/h 90% 0.8 mm 30.00 W/m2
06:00 10.4 °C 9.0 °C 1011.4 hPa SW 9.7 km/h 22.5 km/h 91% 0.8 mm 33.00 W/m2
06:05 10.4 °C 9.0 °C 1011.4 hPa SSE 4.7 km/h 30.6 km/h 91% 0.8 mm 33.00 W/m2
06:10 10.5 °C 9.1 °C 1011.4 hPa SSW 13.0 km/h 38.6 km/h 91% 0.5 mm 21.00 W/m2
06:15 10.5 °C 9.1 °C 1011.1 hPa South 19.5 km/h 30.6 km/h 91% 0.5 mm 23.00 W/m2
06:20 10.6 °C 9.2 °C 1010.7 hPa SSW 32.2 km/h 32.2 km/h 91% 0.5 mm 23.00 W/m2
06:25 10.6 °C 9.2 °C 1010.7 hPa SW 24.1 km/h 30.6 km/h 91% 0.3 mm 30.00 W/m2
06:30 10.6 °C 9.2 °C 1010.4 hPa South 11.1 km/h 24.1 km/h 91% 0.3 mm 26.00 W/m2
06:35 10.6 °C 9.2 °C 1010.4 hPa South 14.3 km/h 25.7 km/h 91% 0.3 mm 23.00 W/m2
06:40 10.6 °C 9.4 °C 1010.4 hPa SSE 22.7 km/h 27.4 km/h 92% 0.0 mm 23.00 W/m2
06:45 10.7 °C 9.5 °C 1010.0 hPa SSE 13.0 km/h 24.1 km/h 92% 0.0 mm 26.00 W/m2
06:50 10.7 °C 9.5 °C 1010.0 hPa South 3.2 km/h 20.9 km/h 92% 0.0 mm 30.00 W/m2
06:55 10.7 °C 9.5 °C 1009.7 hPa SSE 9.7 km/h 17.7 km/h 92% 0.0 mm 33.00 W/m2
07:00 10.8 °C 9.6 °C 1009.4 hPa SSE 13.0 km/h 24.1 km/h 92% 0.0 mm 37.00 W/m2
07:05 10.8 °C 9.6 °C 1009.4 hPa SW 13.0 km/h 22.5 km/h 92% 0.0 mm 25.00 W/m2
07:10 10.9 °C 9.7 °C 1009.4 hPa South 11.1 km/h 19.3 km/h 92% 0.0 mm 18.00 W/m2
07:15 10.9 °C 9.7 °C 1009.0 hPa SSW 22.7 km/h 29.0 km/h 92% 0.0 mm 33.00 W/m2
07:20 10.9 °C 9.7 °C 1009.0 hPa SSW 9.7 km/h 19.3 km/h 92% 0.0 mm 70.00 W/m2
07:25 11.0 °C 9.8 °C 1008.7 hPa SSW 27.4 km/h 27.4 km/h 92% 0.3 mm 49.00 W/m2
07:30 11.0 °C 9.9 °C 1008.7 hPa SW 11.1 km/h 22.5 km/h 93% 0.3 mm 26.00 W/m2
07:35 11.1 °C 10.0 °C 1008.7 hPa SSW 24.1 km/h 35.4 km/h 93% 0.5 mm 21.00 W/m2
07:40 11.2 °C 10.1 °C 1008.4 hPa South 9.7 km/h 30.6 km/h 93% 0.5 mm 32.00 W/m2
07:45 11.3 °C 10.0 °C 1008.4 hPa South 32.2 km/h 32.2 km/h 92% 0.5 mm 21.00 W/m2
07:50 11.3 °C 10.0 °C 1008.4 hPa SSE 37.0 km/h 37.0 km/h 92% 0.5 mm 21.00 W/m2
07:55 11.3 °C 10.0 °C 1008.4 hPa SW 9.7 km/h 25.7 km/h 92% 0.5 mm 21.00 W/m2
08:00 11.3 °C 10.0 °C 1008.0 hPa SSW 3.2 km/h 11.3 km/h 92% 0.5 mm 28.00 W/m2
08:05 11.3 °C 10.0 °C 1008.0 hPa SW 11.1 km/h 32.2 km/h 92% 0.5 mm 25.00 W/m2
08:10 11.3 °C 10.0 °C 1007.7 hPa SSW 17.7 km/h 25.7 km/h 92% 0.5 mm 28.00 W/m2
08:15 11.3 °C 10.2 °C 1007.3 hPa WSW 19.5 km/h 19.3 km/h 93% 0.5 mm 33.00 W/m2
08:20 11.3 °C 10.2 °C 1007.3 hPa South 9.7 km/h 29.0 km/h 93% 0.5 mm 28.00 W/m2
08:25 11.4 °C 10.3 °C 1007.0 hPa South 28.8 km/h 30.6 km/h 93% 0.3 mm 23.00 W/m2
08:30 11.5 °C 10.4 °C 1006.7 hPa South 22.7 km/h 49.9 km/h 93% 0.0 mm 14.00 W/m2
08:35 11.6 °C 10.3 °C 1006.7 hPa SW 27.4 km/h 30.6 km/h 92% 0.0 mm 16.00 W/m2
08:40 11.6 °C 10.3 °C 1006.3 hPa SSW 41.8 km/h 41.8 km/h 92% 0.0 mm 16.00 W/m2
08:45 11.6 °C 10.3 °C 1006.3 hPa SSE 25.9 km/h 25.7 km/h 92% 0.0 mm 16.00 W/m2
08:50 11.6 °C 10.3 °C 1006.0 hPa SSW 7.9 km/h 25.7 km/h 92% 0.0 mm 14.00 W/m2
08:55 11.6 °C 10.3 °C 1006.3 hPa SSW 22.7 km/h 38.6 km/h 92% 0.0 mm 14.00 W/m2
09:00 11.7 °C 10.4 °C 1006.0 hPa SSW 22.7 km/h 41.8 km/h 92% 0.0 mm 12.00 W/m2
09:05 11.7 °C 10.4 °C 1005.6 hPa South 16.3 km/h 40.2 km/h 92% 0.0 mm 11.00 W/m2
09:10 11.7 °C 10.4 °C 1005.6 hPa SSW 11.1 km/h 29.0 km/h 92% 0.0 mm 9.00 W/m2
09:15 11.8 °C 10.5 °C 1005.6 hPa SW 19.5 km/h 37.0 km/h 92% 0.0 mm 12.00 W/m2
09:20 11.8 °C 10.5 °C 1005.3 hPa SSW 24.1 km/h 35.4 km/h 92% 0.0 mm 12.00 W/m2
09:25 11.8 °C 10.5 °C 1005.3 hPa SW 20.9 km/h 40.2 km/h 92% 0.0 mm 9.00 W/m2
09:30 11.8 °C 10.5 °C 1005.0 hPa South 17.7 km/h 41.8 km/h 92% 0.0 mm 9.00 W/m2
09:35 11.9 °C 10.6 °C 1005.0 hPa South 11.1 km/h 30.6 km/h 92% 0.0 mm 9.00 W/m2
09:40 11.9 °C 10.6 °C 1005.0 hPa South 14.3 km/h 22.5 km/h 92% 0.0 mm 9.00 W/m2
09:46 11.9 °C 10.6 °C 1004.6 hPa SSE 25.9 km/h 29.0 km/h 92% 0.0 mm 9.00 W/m2
09:50 12.0 °C 10.7 °C 1004.6 hPa SSW 14.3 km/h 33.8 km/h 92% 0.0 mm 11.00 W/m2
09:55 12.1 °C 10.8 °C 1004.3 hPa SSW 13.0 km/h 43.4 km/h 92% 0.0 mm 11.00 W/m2
10:00 12.1 °C 10.8 °C 1004.6 hPa SW 14.3 km/h 33.8 km/h 92% 0.0 mm 7.00 W/m2
10:05 12.2 °C 10.9 °C 1004.3 hPa South 16.3 km/h 32.2 km/h 92% 0.0 mm 7.00 W/m2
10:10 12.2 °C 10.9 °C 1004.3 hPa SSW 19.5 km/h 37.0 km/h 92% 0.0 mm 7.00 W/m2
10:15 12.3 °C 11.0 °C 1003.9 hPa SSW 27.4 km/h 35.4 km/h 92% 0.0 mm 11.00 W/m2
10:20 12.3 °C 11.0 °C 1003.9 hPa SSW 30.6 km/h 35.4 km/h 92% 0.0 mm 7.00 W/m2
10:25 12.3 °C 11.0 °C 1003.6 hPa SSW 20.9 km/h 35.4 km/h 92% 0.0 mm 7.00 W/m2
10:30 12.3 °C 11.0 °C 1003.3 hPa SSW 11.1 km/h 30.6 km/h 92% 0.0 mm 5.00 W/m2
10:35 12.4 °C 11.1 °C 1003.3 hPa SSE 20.9 km/h 24.1 km/h 92% 0.0 mm 5.00 W/m2
10:40 12.6 °C 11.2 °C 1003.3 hPa South 14.3 km/h 33.8 km/h 91% 0.0 mm 0.00 W/m2
10:45 12.6 °C 11.2 °C 1002.9 hPa SE 9.7 km/h 38.6 km/h 91% 0.0 mm 0.00 W/m2
10:50 12.6 °C 11.2 °C 1002.6 hPa South 13.0 km/h 43.4 km/h 91% 0.0 mm 0.00 W/m2
10:55 12.7 °C 11.3 °C 1002.6 hPa SSW 17.7 km/h 46.7 km/h 91% 0.0 mm 0.00 W/m2
11:00 12.7 °C 11.3 °C 1002.6 hPa South 14.3 km/h 38.6 km/h 91% 0.0 mm 0.00 W/m2
11:05 12.8 °C 11.4 °C 1002.6 hPa South 11.1 km/h 29.0 km/h 91% 0.0 mm 0.00 W/m2
11:10 12.8 °C 11.4 °C 1002.3 hPa SSW 13.0 km/h 29.0 km/h 91% 0.0 mm 0.00 W/m2
11:15 12.8 °C 11.4 °C 1002.6 hPa SSW 24.1 km/h 32.2 km/h 91% 0.0 mm 0.00 W/m2
11:20 12.8 °C 11.2 °C 1002.3 hPa South 11.1 km/h 30.6 km/h 90% 0.0 mm 0.00 W/m2
11:25 12.8 °C 11.2 °C 1001.9 hPa SW 14.3 km/h 33.8 km/h 90% 0.0 mm 0.00 W/m2
11:30 12.7 °C 11.3 °C 1001.9 hPa South 11.1 km/h 43.4 km/h 91% 0.3 mm 0.00 W/m2
11:35 12.7 °C 11.3 °C 1001.9 hPa SSE 13.0 km/h 29.0 km/h 91% 0.3 mm 0.00 W/m2
11:40 12.7 °C 11.3 °C 1001.9 hPa SSW 20.9 km/h 29.0 km/h 91% 0.3 mm 0.00 W/m2
11:45 12.7 °C 11.3 °C 1001.6 hPa SSE 9.7 km/h 27.4 km/h 91% 0.3 mm 0.00 W/m2
11:50 12.7 °C 11.3 °C 1001.6 hPa SSW 17.7 km/h 29.0 km/h 91% 0.3 mm 0.00 W/m2
11:55 12.8 °C 11.4 °C 1001.6 hPa South 13.0 km/h 29.0 km/h 91% 0.5 mm 0.00 W/m2
12:00 12.8 °C 11.4 °C 1001.6 hPa SSW 24.1 km/h 40.2 km/h 91% 0.5 mm 0.00 W/m2
12:05 12.8 °C 11.4 °C 1001.6 hPa South 20.9 km/h 32.2 km/h 91% 0.5 mm 0.00 W/m2
12:10 13.0 °C 11.6 °C 1001.2 hPa SSW 35.2 km/h 43.4 km/h 91% 0.5 mm 0.00 W/m2
12:15 13.0 °C 11.6 °C 1001.2 hPa South 19.5 km/h 32.2 km/h 91% 0.5 mm 0.00 W/m2
12:20 13.1 °C 11.5 °C 1000.9 hPa SW 11.1 km/h 38.6 km/h 90% 0.5 mm 0.00 W/m2
12:25 13.1 °C 11.5 °C 1000.6 hPa SW 40.4 km/h 40.2 km/h 90% 0.5 mm 0.00 W/m2
12:30 13.1 °C 11.5 °C 1000.2 hPa South 16.3 km/h 43.4 km/h 90% 0.3 mm 0.00 W/m2
12:35 13.3 °C 11.7 °C 1000.6 hPa SW 17.7 km/h 48.3 km/h 90% 0.3 mm 0.00 W/m2
12:40 13.3 °C 11.7 °C 1001.6 hPa SW 22.7 km/h 35.4 km/h 90% 0.3 mm 0.00 W/m2
12:45 11.8 °C 10.0 °C 1001.9 hPa West 19.5 km/h 30.6 km/h 89% 2.0 mm 0.00 W/m2
12:51 11.0 °C 9.4 °C 1002.6 hPa West 37.0 km/h 37.0 km/h 90% 2.3 mm 0.00 W/m2
12:55 10.7 °C 9.1 °C 1002.9 hPa West 24.1 km/h 35.4 km/h 90% 2.0 mm 0.00 W/m2
13:00 10.4 °C 9.0 °C 1002.9 hPa WSW 28.8 km/h 37.0 km/h 91% 2.3 mm 0.00 W/m2
13:05 10.1 °C 8.7 °C 1002.6 hPa WNW 14.3 km/h 35.4 km/h 91% 2.3 mm 0.00 W/m2
13:10 9.9 °C 8.7 °C 1002.9 hPa West 16.3 km/h 35.4 km/h 92% 2.5 mm 0.00 W/m2
13:15 9.8 °C 8.6 °C 1003.3 hPa West 27.4 km/h 38.6 km/h 92% 2.5 mm 0.00 W/m2
13:20 9.6 °C 8.4 °C 1003.6 hPa West 14.3 km/h 37.0 km/h 92% 3.0 mm 0.00 W/m2
13:25 9.3 °C 8.1 °C 1003.6 hPa WNW 16.3 km/h 27.4 km/h 92% 3.0 mm 0.00 W/m2
13:30 9.2 °C 8.0 °C 1003.6 hPa West 11.1 km/h 37.0 km/h 92% 3.0 mm 0.00 W/m2
13:35 9.1 °C 7.9 °C 1003.6 hPa WNW 19.5 km/h 25.7 km/h 92% 3.3 mm 0.00 W/m2
13:40 8.9 °C 7.7 °C 1003.9 hPa WSW 19.5 km/h 20.9 km/h 92% 3.3 mm 0.00 W/m2
13:45 8.9 °C 7.7 °C 1003.9 hPa West 11.1 km/h 20.9 km/h 92% 1.5 mm 0.00 W/m2
13:50 8.9 °C 7.7 °C 1003.9 hPa West 25.9 km/h 30.6 km/h 92% 1.3 mm 0.00 W/m2
13:55 8.9 °C 7.7 °C 1003.9 hPa SW 20.9 km/h 27.4 km/h 92% 1.3 mm 0.00 W/m2
14:00 8.9 °C 7.7 °C 1004.3 hPa West 11.1 km/h 35.4 km/h 92% 0.8 mm 0.00 W/m2
14:05 8.9 °C 7.7 °C 1004.3 hPa West 17.7 km/h 25.7 km/h 92% 0.8 mm 0.00 W/m2
14:10 8.9 °C 7.7 °C 1004.6 hPa West 14.3 km/h 33.8 km/h 92% 0.8 mm 0.00 W/m2
14:15 8.8 °C 7.6 °C 1004.3 hPa West 16.3 km/h 24.1 km/h 92% 0.5 mm 0.00 W/m2
14:20 8.8 °C 7.6 °C 1004.6 hPa WSW 22.7 km/h 32.2 km/h 92% 0.5 mm 0.00 W/m2
14:25 8.8 °C 7.6 °C 1005.0 hPa WNW 9.7 km/h 35.4 km/h 92% 0.5 mm 0.00 W/m2
14:30 8.7 °C 7.3 °C 1005.0 hPa West 14.3 km/h 19.3 km/h 91% 0.3 mm 0.00 W/m2
14:35 8.7 °C 7.3 °C 1005.3 hPa West 11.1 km/h 24.1 km/h 91% 0.3 mm 0.00 W/m2
14:40 8.7 °C 7.3 °C 1005.0 hPa WNW 17.7 km/h 25.7 km/h 91% 0.3 mm 0.00 W/m2
14:45 8.7 °C 7.2 °C 1005.3 hPa West 9.7 km/h 12.9 km/h 90% 0.3 mm 0.00 W/m2
14:50 8.6 °C 7.1 °C 1005.0 hPa West 13.0 km/h 16.1 km/h 90% 0.3 mm 0.00 W/m2
14:55 8.6 °C 7.1 °C 1005.3 hPa WSW 19.5 km/h 24.1 km/h 90% 0.3 mm 0.00 W/m2
15:00 8.5 °C 7.0 °C 1005.3 hPa WNW 11.1 km/h 20.9 km/h 90% 0.3 mm 0.00 W/m2
15:05 8.6 °C 6.9 °C 1005.3 hPa West 13.0 km/h 24.1 km/h 89% 0.0 mm 0.00 W/m2
15:11 8.6 °C 6.9 °C 1005.6 hPa West 11.1 km/h 25.7 km/h 89% 0.0 mm 0.00 W/m2
15:15 8.4 °C 6.7 °C 1006.0 hPa WNW 27.4 km/h 27.4 km/h 89% 0.0 mm 0.00 W/m2
15:20 8.2 °C 6.3 °C 1006.0 hPa WSW 45.1 km/h 45.1 km/h 88% 0.3 mm 0.00 W/m2
15:25 8.2 °C 6.0 °C 1006.0 hPa West 14.3 km/h 29.0 km/h 86% 0.3 mm 0.00 W/m2
15:30 8.2 °C 6.0 °C 1006.0 hPa WSW 17.7 km/h 24.1 km/h 86% 0.3 mm 0.00 W/m2
15:35 8.0 °C 5.8 °C 1006.0 hPa WSW 16.3 km/h 19.3 km/h 86% 0.3 mm 0.00 W/m2
15:40 7.9 °C 5.7 °C 1006.0 hPa WNW 13.0 km/h 24.1 km/h 86% 0.3 mm 0.00 W/m2
15:45 7.9 °C 5.7 °C 1006.0 hPa West 9.7 km/h 17.7 km/h 86% 0.3 mm 0.00 W/m2
15:50 7.9 °C 5.7 °C 1006.3 hPa West 7.9 km/h 25.7 km/h 86% 0.3 mm 0.00 W/m2
15:55 7.8 °C 5.6 °C 1006.3 hPa West 13.0 km/h 14.5 km/h 86% 0.3 mm 0.00 W/m2
16:00 7.7 °C 5.7 °C 1006.3 hPa WNW 9.7 km/h 19.3 km/h 87% 0.3 mm 0.00 W/m2
16:05 7.6 °C 5.4 °C 1006.3 hPa West 7.9 km/h 20.9 km/h 86% 0.3 mm 0.00 W/m2
16:10 7.5 °C 5.3 °C 1006.3 hPa West 7.9 km/h 16.1 km/h 86% 0.3 mm 0.00 W/m2
16:15 7.5 °C 5.3 °C 1006.3 hPa West 1.4 km/h 9.7 km/h 86% 0.0 mm 0.00 W/m2
16:21 7.4 °C 5.2 °C 1006.3 hPa West 7.9 km/h 9.7 km/h 86% 0.0 mm 0.00 W/m2
16:25 7.4 °C 5.2 °C 1006.7 hPa West 4.7 km/h 11.3 km/h 86% 0.0 mm 0.00 W/m2
16:30 7.3 °C 5.1 °C 1006.7 hPa West 3.2 km/h 11.3 km/h 86% 0.0 mm 0.00 W/m2
16:35 7.3 °C 5.1 °C 1007.0 hPa West 9.7 km/h 9.7 km/h 86% 0.0 mm 0.00 W/m2
16:40 7.3 °C 5.1 °C 1007.0 hPa West 4.7 km/h 14.5 km/h 86% 0.0 mm 0.00 W/m2
16:45 7.3 °C 5.1 °C 1007.0 hPa West 3.2 km/h 8.0 km/h 86% 0.0 mm 0.00 W/m2
16:50 7.2 °C 5.0 °C 1007.0 hPa West 1.4 km/h 14.5 km/h 86% 0.0 mm 0.00 W/m2
16:55 7.2 °C 5.0 °C 1007.0 hPa Calm   4.8 km/h 86% 0.0 mm 0.00 W/m2
17:01 7.1 °C 4.9 °C 1007.0 hPa Calm   4.8 km/h 86% 0.0 mm 0.00 W/m2
17:05 7.1 °C 4.9 °C 1007.3 hPa West 1.4 km/h 4.8 km/h 86% 0.0 mm 0.00 W/m2
17:10 7.1 °C 5.1 °C 1007.3 hPa West 1.4 km/h 3.2 km/h 87% 0.0 mm 0.00 W/m2
17:15 7.0 °C 5.0 °C 1007.3 hPa West 1.4 km/h 4.8 km/h 87% 0.0 mm 0.00 W/m2
17:21 6.8 °C 4.8 °C 1007.3 hPa Calm   1.6 km/h 87% 0.0 mm 0.00 W/m2
17:25 6.8 °C 4.8 °C 1007.3 hPa Calm   4.8 km/h 87% 0.0 mm 0.00 W/m2
17:30 6.7 °C 4.9 °C 1007.7 hPa Calm   1.6 km/h 88% 0.0 mm 0.00 W/m2
17:35 6.7 °C 4.9 °C 1007.7 hPa West 4.7 km/h 6.4 km/h 88% 0.0 mm 0.00 W/m2
17:40 6.7 °C 4.9 °C 1007.7 hPa Calm   3.2 km/h 88% 0.0 mm 0.00 W/m2
17:45 6.6 °C 4.8 °C 1008.0 hPa Calm     88% 0.0 mm 0.00 W/m2
17:50 6.5 °C 4.8 °C 1008.0 hPa Calm     89% 0.0 mm 0.00 W/m2
17:55 6.4 °C 4.7 °C 1008.0 hPa Calm     89% 0.0 mm 0.00 W/m2
18:00 6.3 °C 4.6 °C 1008.0 hPa Calm     89% 0.0 mm 0.00 W/m2
18:05 6.1 °C 4.4 °C 1008.0 hPa Calm     89% 0.0 mm 0.00 W/m2
18:10 6.1 °C 4.4 °C 1008.0 hPa Calm     89% 0.0 mm 0.00 W/m2
18:15 6.1 °C 4.4 °C 1008.0 hPa Calm     89% 0.0 mm 0.00 W/m2
18:20 6.1 °C 4.4 °C 1008.0 hPa Calm     89% 0.0 mm 0.00 W/m2
18:25 6.0 °C 4.5 °C 1008.0 hPa Calm     90% 0.0 mm 0.00 W/m2
18:30 5.9 °C 4.4 °C 1008.0 hPa Calm     90% 0.0 mm 0.00 W/m2
18:35 5.8 °C 4.3 °C 1008.4 hPa West 1.4 km/h 1.6 km/h 90% 0.0 mm 0.00 W/m2
18:40 5.8 °C 4.3 °C 1008.4 hPa Calm     90% 0.0 mm 0.00 W/m2
18:45 5.9 °C 4.4 °C 1008.4 hPa West 3.2 km/h 4.8 km/h 90% 0.0 mm 0.00 W/m2
18:50 5.9 °C 4.4 °C 1008.4 hPa West 3.2 km/h 6.4 km/h 90% 0.0 mm 0.00 W/m2
18:55 6.0 °C 4.5 °C 1008.4 hPa Calm   6.4 km/h 90% 0.3 mm 0.00 W/m2
19:00 6.1 °C 4.7 °C 1008.4 hPa Calm   1.6 km/h 91% 0.3 mm 0.00 W/m2
19:05 6.2 °C 4.8 °C 1008.4 hPa Calm   6.4 km/h 91% 0.3 mm 0.00 W/m2
19:10 6.2 °C 4.8 °C 1008.4 hPa West 3.2 km/h 8.0 km/h 91% 0.3 mm 0.00 W/m2
19:16 6.3 °C 4.9 °C 1008.4 hPa WSW 6.4 km/h 8.0 km/h 91% 0.3 mm 0.00 W/m2
19:20 6.3 °C 4.8 °C 1008.0 hPa WSW 7.9 km/h 9.7 km/h 90% 0.3 mm 0.00 W/m2
19:25 6.4 °C 4.9 °C 1008.4 hPa WSW 7.9 km/h 8.0 km/h 90% 0.3 mm 0.00 W/m2
19:30 6.4 °C 4.9 °C 1008.4 hPa West 4.7 km/h 11.3 km/h 90% 0.3 mm 0.00 W/m2
19:35 6.4 °C 4.7 °C 1008.4 hPa West 1.4 km/h 9.7 km/h 89% 0.3 mm 0.00 W/m2
19:40 6.3 °C 4.6 °C 1008.4 hPa West 4.7 km/h 6.4 km/h 89% 0.3 mm 0.00 W/m2
19:45 6.2 °C 4.5 °C 1008.4 hPa West 3.2 km/h 4.8 km/h 89% 0.3 mm 0.00 W/m2
19:50 6.1 °C 4.4 °C 1008.4 hPa Calm   1.6 km/h 89% 0.0 mm 0.00 W/m2
19:55 5.9 °C 4.2 °C 1008.4 hPa West 3.2 km/h 6.4 km/h 89% 0.0 mm 0.00 W/m2
20:00 5.8 °C 4.1 °C 1008.4 hPa West 1.4 km/h 4.8 km/h 89% 0.0 mm 0.00 W/m2
20:05 5.8 °C 4.1 °C 1008.4 hPa Calm   1.6 km/h 89% 0.0 mm 0.00 W/m2
20:10 5.7 °C 4.0 °C 1008.4 hPa West 3.2 km/h 3.2 km/h 89% 0.0 mm 0.00 W/m2
20:15 5.6 °C 3.9 °C 1008.4 hPa Calm   4.8 km/h 89% 0.0 mm 0.00 W/m2
20:20 5.6 °C 3.9 °C 1008.4 hPa Calm   1.6 km/h 89% 0.0 mm 0.00 W/m2
20:25 5.5 °C 4.0 °C 1008.4 hPa West 4.7 km/h 9.7 km/h 90% 0.0 mm 0.00 W/m2
20:30 5.6 °C 4.1 °C 1008.4 hPa Calm   4.8 km/h 90% 0.0 mm 0.00 W/m2
20:35 5.5 °C 4.0 °C 1008.4 hPa Calm     90% 0.0 mm 0.00 W/m2
20:40 5.4 °C 3.9 °C 1008.4 hPa West 3.2 km/h 9.7 km/h 90% 0.0 mm 0.00 W/m2
20:45 5.4 °C 3.9 °C 1008.4 hPa West 1.4 km/h 3.2 km/h 90% 0.0 mm 0.00 W/m2
20:50 5.5 °C 4.0 °C 1008.4 hPa Calm     90% 0.0 mm 0.00 W/m2
20:55 5.4 °C 3.9 °C 1008.4 hPa Calm     90% 0.0 mm 0.00 W/m2
21:00 5.4 °C 3.9 °C 1008.4 hPa Calm     90% 0.0 mm 0.00 W/m2
21:05 5.3 °C 3.8 °C 1008.4 hPa Calm     90% 0.0 mm 0.00 W/m2
21:10 5.2 °C 3.7 °C 1008.4 hPa Calm     90% 0.0 mm 0.00 W/m2
21:15 5.1 °C 3.6 °C 1008.4 hPa Calm     90% 0.0 mm 0.00 W/m2
21:20 4.8 °C 3.3 °C 1008.4 hPa Calm     90% 0.0 mm 0.00 W/m2
21:25 4.7 °C 3.2 °C 1008.4 hPa Calm     90% 0.0 mm 0.00 W/m2
21:30 4.6 °C 3.1 °C 1008.4 hPa Calm   1.6 km/h 90% 0.0 mm 0.00 W/m2
21:35 4.4 °C 2.9 °C 1008.4 hPa Calm     90% 0.0 mm 0.00 W/m2
21:40 4.4 °C 3.1 °C 1008.4 hPa West 4.7 km/h 6.4 km/h 91% 0.0 mm 0.00 W/m2
21:45 4.4 °C 3.1 °C 1008.4 hPa West 1.4 km/h 6.4 km/h 91% 0.0 mm 0.00 W/m2
21:50 4.4 °C 3.1 °C 1008.4 hPa Calm   4.8 km/h 91% 0.0 mm 0.00 W/m2
21:55 4.3 °C 3.0 °C 1008.4 hPa West 3.2 km/h 3.2 km/h 91% 0.0 mm 0.00 W/m2
22:00 4.3 °C 3.0 °C 1008.4 hPa West 3.2 km/h 3.2 km/h 91% 0.0 mm 0.00 W/m2
22:05 4.2 °C 2.9 °C 1008.4 hPa West 1.4 km/h 1.6 km/h 91% 0.0 mm 0.00 W/m2
22:10 4.3 °C 3.0 °C 1008.4 hPa West 1.4 km/h 4.8 km/h 91% 0.0 mm 0.00 W/m2
22:15 4.2 °C 3.0 °C 1008.4 hPa Calm   4.8 km/h 92% 0.0 mm 0.00 W/m2
22:20 4.1 °C 2.9 °C 1008.4 hPa Calm   1.6 km/h 92% 0.0 mm 0.00 W/m2
22:25 4.1 °C 2.9 °C 1008.4 hPa Calm   3.2 km/h 92% 0.0 mm 0.00 W/m2
22:30 4.0 °C 2.8 °C 1008.4 hPa West 1.4 km/h 1.6 km/h 92% 0.0 mm 0.00 W/m2
22:35 4.1 °C 2.9 °C 1008.0 hPa Calm   1.6 km/h 92% 0.0 mm 0.00 W/m2
22:40 4.2 °C 3.0 °C 1008.0 hPa West 4.7 km/h 6.4 km/h 92% 0.0 mm 0.00 W/m2
22:45 4.2 °C 3.0 °C 1008.0 hPa West 3.2 km/h 6.4 km/h 92% 0.0 mm 0.00 W/m2
22:50 4.3 °C 3.1 °C 1008.0 hPa Calm   6.4 km/h 92% 0.0 mm 0.00 W/m2
22:55 4.4 °C 3.2 °C 1008.0 hPa Calm   4.8 km/h 92% 0.0 mm 0.00 W/m2
23:00 4.4 °C 3.2 °C 1008.0 hPa Calm   6.4 km/h 92% 0.0 mm 0.00 W/m2
23:05 4.3 °C 3.1 °C 1008.0 hPa West 1.4 km/h 1.6 km/h 92% 0.0 mm 0.00 W/m2
23:10 4.3 °C 3.1 °C 1007.7 hPa Calm   4.8 km/h 92% 0.0 mm 0.00 W/m2
23:15 4.3 °C 3.1 °C 1007.7 hPa Calm   9.7 km/h 92% 0.0 mm 0.00 W/m2
23:20 4.2 °C 3.0 °C 1008.0 hPa West 4.7 km/h 6.4 km/h 92% 0.0 mm 0.00 W/m2
23:25 4.2 °C 3.0 °C 1007.7 hPa Calm   3.2 km/h 92% 0.0 mm 0.00 W/m2
23:30 4.2 °C 3.0 °C 1007.7 hPa West 3.2 km/h 3.2 km/h 92% 0.0 mm 0.00 W/m2
23:35 4.2 °C 3.0 °C 1007.7 hPa West 4.7 km/h 4.8 km/h 92% 0.0 mm 0.00 W/m2
23:40 4.3 °C 3.1 °C 1007.7 hPa WSW 7.9 km/h 8.0 km/h 92% 0.0 mm 0.00 W/m2
23:45 4.3 °C 3.1 °C 1007.3 hPa SW 1.4 km/h 4.8 km/h 92% 0.0 mm 0.00 W/m2
23:51 4.3 °C 3.1 °C 1007.3 hPa Calm     92% 0.0 mm 0.00 W/m2
23:55 4.2 °C 3.0 °C 1007.3 hPa Calm   1.6 km/h 92% 0.0 mm 0.00 W/m2